Time;durP1;ratioP1;P1;durP2;ratioP2;P2;SDS_P1;SDS_P2;PMS_P1;PMS_P2;Temp;Humidity;BMP_temperature;BMP_pressure;BME280_temperature;BME280_humidity;BME280_pressure;Samples;Min_cycle;Max_cycle;Signal;HPM_P1;HPM_P2
2023/11/09 00:01:54;;;;;;;5.25;1.90;;;10.60;99.90;;;;;;5099301;28;20289;-81
2023/11/09 00:04:21;;;;;;;2.20;1.73;;;10.50;99.90;;;;;;5095519;28;20276;-81
2023/11/09 00:06:49;;;;;;;5.35;2.42;;;10.50;99.90;;;;;;5095043;28;20219;-81
2023/11/09 00:09:16;;;;;;;2.38;2.17;;;10.50;99.90;;;;;;5093694;28;20290;-78
2023/11/09 00:11:45;;;;;;;3.42;2.13;;;10.50;99.90;;;;;;5095855;28;20223;-78
2023/11/09 00:14:15;;;;;;;2.80;1.75;;;10.50;99.90;;;;;;5094877;28;20361;-80
2023/11/09 00:16:42;;;;;;;2.85;1.80;;;10.50;99.90;;;;;;5095233;28;20289;-80
2023/11/09 00:19:09;;;;;;;3.70;1.85;;;10.50;99.90;;;;;;5088711;28;20310;-80
2023/11/09 00:21:36;;;;;;;2.70;2.20;;;10.40;99.90;;;;;;5095264;28;20220;-81
2023/11/09 00:24:09;;;;;;;2.47;2.03;;;10.40;99.90;;;;;;5092270;28;20215;-78
2023/11/09 00:26:37;;;;;;;16.65;11.32;;;10.40;99.90;;;;;;5090512;28;20623;-77
2023/11/09 00:29:04;;;;;;;17.55;11.95;;;10.40;99.90;;;;;;5093997;28;20230;-81
2023/11/09 00:31:31;;;;;;;3.38;2.72;;;10.50;99.90;;;;;;5094352;28;20227;-80
2023/11/09 00:33:58;;;;;;;2.95;2.00;;;10.40;99.90;;;;;;5094287;28;20219;-81
2023/11/09 00:36:25;;;;;;;2.17;1.77;;;10.50;99.90;;;;;;5089676;28;20310;-81
2023/11/09 00:38:52;;;;;;;2.50;2.10;;;10.50;99.90;;;;;;5095473;28;20272;-81
2023/11/09 00:41:21;;;;;;;1.80;1.50;;;10.50;99.90;;;;;;5085579;28;20231;-81
2023/11/09 00:43:48;;;;;;;3.92;1.83;;;10.50;99.90;;;;;;5074948;28;20274;-81
2023/11/09 00:46:15;;;;;;;3.03;1.85;;;10.50;99.90;;;;;;5090358;28;20314;-79
2023/11/09 00:48:42;;;;;;;3.28;1.95;;;10.50;99.90;;;;;;5082170;28;20299;-79
2023/11/09 00:51:09;;;;;;;3.30;3.00;;;10.50;99.90;;;;;;5074274;28;20238;-78
2023/11/09 00:53:37;;;;;;;3.67;1.83;;;10.50;99.90;;;;;;5066040;28;20297;-78
2023/11/09 00:56:05;;;;;;;6.40;2.65;;;10.50;99.90;;;;;;5075177;28;20570;-81
2023/11/09 00:58:33;;;;;;;1.70;1.50;;;10.50;99.90;;;;;;5074511;28;20243;-78
2023/11/09 01:01:00;;;;;;;2.33;1.90;;;10.60;99.90;;;;;;5086641;28;20261;-78
2023/11/09 01:03:27;;;;;;;2.10;1.77;;;10.50;99.90;;;;;;5076208;28;20638;-78
2023/11/09 01:06:00;;;;;;;5.20;1.65;;;10.60;99.90;;;;;;5074788;28;20306;-78
2023/11/09 01:08:28;;;;;;;3.15;2.03;;;10.60;99.90;;;;;;5094324;28;20215;-78
2023/11/09 01:10:56;;;;;;;4.82;2.30;;;10.60;99.90;;;;;;5094734;28;20565;-78
2023/11/09 01:13:23;;;;;;;4.15;2.20;;;10.50;99.90;;;;;;5094505;28;22467;-81
2023/11/09 01:15:51;;;;;;;2.47;1.85;;;10.50;99.90;;;;;;5094646;28;20234;-81
2023/11/09 01:18:18;;;;;;;1.90;1.70;;;10.50;99.90;;;;;;5094238;28;20247;-81
2023/11/09 01:20:45;;;;;;;1.80;1.50;;;10.50;99.90;;;;;;5094757;28;20615;-80
2023/11/09 01:23:13;;;;;;;3.10;1.90;;;10.50;99.90;;;;;;5094625;28;20243;-79
2023/11/09 01:25:40;;;;;;;3.17;1.80;;;10.50;99.90;;;;;;5094561;28;20223;-78
2023/11/09 01:28:07;;;;;;;2.67;2.10;;;10.50;99.90;;;;;;5093490;28;20254;-79
2023/11/09 01:30:34;;;;;;;1.67;1.58;;;10.40;99.90;;;;;;5094638;28;20219;-81
2023/11/09 01:33:03;;;;;;;2.13;1.70;;;10.50;99.90;;;;;;5094188;28;20681;-81
2023/11/09 01:35:31;;;;;;;2.17;1.98;;;10.40;99.90;;;;;;5092757;28;20227;-78
2023/11/09 01:37:58;;;;;;;2.53;2.10;;;10.50;99.90;;;;;;5094344;28;20224;-81
2023/11/09 01:40:26;;;;;;;2.88;1.65;;;10.50;99.90;;;;;;5093565;28;20265;-78
2023/11/09 01:42:54;;;;;;;2.25;2.05;;;10.50;99.90;;;;;;5088518;28;20540;-81
2023/11/09 01:45:23;;;;;;;1.77;1.65;;;10.50;99.90;;;;;;5093479;28;20228;-81
2023/11/09 01:47:50;;;;;;;2.45;1.90;;;10.50;99.90;;;;;;5094044;28;20584;-81
2023/11/09 01:50:19;;;;;;;1.60;1.50;;;10.50;99.90;;;;;;5093191;28;20289;-81
2023/11/09 01:52:47;;;;;;;2.53;1.90;;;10.50;99.90;;;;;;5093934;28;20220;-81
2023/11/09 01:55:15;;;;;;;5.82;1.80;;;10.50;99.90;;;;;;5093183;28;20227;-81
2023/11/09 01:57:42;;;;;;;3.00;2.00;;;10.50;99.90;;;;;;5093826;28;20224;-81
2023/11/09 02:00:13;;;;;;;3.78;2.13;;;10.50;99.90;;;;;;5089120;28;20224;-81
2023/11/09 02:02:41;;;;;;;2.35;2.15;;;10.40;99.90;;;;;;5073071;28;21050;-81
2023/11/09 02:05:09;;;;;;;2.35;1.98;;;10.40;99.90;;;;;;5073385;28;20258;-78
2023/11/09 02:07:38;;;;;;;2.83;2.35;;;10.40;99.90;;;;;;5080136;28;20667;-81
2023/11/09 02:10:07;;;;;;;3.55;2.30;;;10.40;99.90;;;;;;5106905;28;20334;-77
2023/11/09 02:12:35;;;;;;;5.03;1.90;;;10.30;99.90;;;;;;5092558;28;20219;-78
2023/11/09 02:15:03;;;;;;;5.82;1.98;;;10.30;99.90;;;;;;5093471;28;20615;-77
2023/11/09 02:17:30;;;;;;;1.90;1.80;;;10.30;99.90;;;;;;5092733;28;20255;-78
2023/11/09 02:19:57;;;;;;;2.40;1.85;;;10.30;99.90;;;;;;5093505;28;20633;-81
2023/11/09 02:22:28;;;;;;;2.75;2.10;;;10.30;99.90;;;;;;5093174;28;20223;-80
2023/11/09 02:24:57;;;;;;;2.38;2.10;;;10.40;99.90;;;;;;5093477;28;20315;-81
2023/11/09 02:27:27;;;;;;;3.33;2.05;;;10.40;99.90;;;;;;5092386;28;20313;-82
2023/11/09 02:29:54;;;;;;;1.83;1.73;;;10.40;99.90;;;;;;5093438;28;20233;-81
2023/11/09 02:32:29;;;;;;;2.28;1.90;;;10.40;99.90;;;;;;5101937;28;20278;-77
2023/11/09 02:34:56;;;;;;;2.55;1.70;;;10.30;99.90;;;;;;5097021;28;20304;-79
2023/11/09 02:37:24;;;;;;;3.80;1.60;;;10.40;99.90;;;;;;5097540;28;20235;-81
2023/11/09 02:39:56;;;;;;;2.47;2.05;;;10.40;99.90;;;;;;5097018;28;20234;-80
2023/11/09 02:42:23;;;;;;;2.13;1.92;;;10.40;99.90;;;;;;5097347;28;20230;-80
2023/11/09 02:44:50;;;;;;;2.60;1.55;;;10.40;99.90;;;;;;5096673;28;20223;-82
2023/11/09 02:47:17;;;;;;;3.33;2.53;;;10.40;99.90;;;;;;5097532;28;20709;-82
2023/11/09 02:49:44;;;;;;;2.95;2.00;;;10.40;99.90;;;;;;5096849;28;20250;-81
2023/11/09 02:52:11;;;;;;;3.85;1.80;;;10.40;99.90;;;;;;5097440;28;20219;-79
2023/11/09 02:54:38;;;;;;;4.20;1.63;;;10.40;99.90;;;;;;5096587;28;20223;-79
2023/11/09 02:57:07;;;;;;;2.35;1.80;;;10.40;99.90;;;;;;5096996;28;20693;-79
2023/11/09 02:59:34;;;;;;;2.67;2.20;;;10.40;99.90;;;;;;5096237;28;20243;-79
2023/11/09 03:02:01;;;;;;;3.80;2.05;;;10.40;99.90;;;;;;5075875;28;20238;-79
2023/11/09 03:04:28;;;;;;;2.10;1.45;;;10.40;99.90;;;;;;5076647;28;20235;-78
2023/11/09 03:06:55;;;;;;;2.60;1.80;;;10.40;99.90;;;;;;5085143;28;20215;-78
2023/11/09 03:09:22;;;;;;;2.28;2.08;;;10.40;99.90;;;;;;5096875;28;20302;-78
2023/11/09 03:11:49;;;;;;;3.60;1.77;;;10.40;99.90;;;;;;5095602;28;20233;-78
2023/11/09 03:14:18;;;;;;;2.20;1.50;;;10.40;99.90;;;;;;5078684;28;20228;-78
2023/11/09 03:16:45;;;;;;;3.17;2.40;;;10.40;99.90;;;;;;5076142;28;20216;-78
2023/11/09 03:19:12;;;;;;;2.22;1.83;;;10.40;99.90;;;;;;5076454;28;20701;-78
2023/11/09 03:21:51;;;;;;;4.82;2.13;;;10.40;99.90;;;;;;5076323;28;20228;-78
2023/11/09 03:24:19;;;;;;;2.25;1.90;;;10.50;99.90;;;;;;5076302;28;20254;-78
2023/11/09 03:26:48;;;;;;;4.15;2.00;;;10.40;99.90;;;;;;5075933;28;20228;-78
2023/11/09 03:29:17;;;;;;;1.63;1.52;;;10.40;99.90;;;;;;5076096;28;20247;-80
2023/11/09 03:31:44;;;;;;;1.88;1.77;;;10.50;99.90;;;;;;5075881;28;20303;-80
2023/11/09 03:34:12;;;;;;;1.45;1.30;;;10.50;99.90;;;;;;5076200;28;20220;-78
2023/11/09 03:36:39;;;;;;;1.60;1.45;;;10.50;99.90;;;;;;5074936;28;20239;-80
2023/11/09 03:39:06;;;;;;;2.90;1.88;;;10.50;99.90;;;;;;5075954;28;20220;-80
2023/11/09 03:41:33;;;;;;;2.00;1.80;;;10.50;99.90;;;;;;5075615;28;20750;-78
2023/11/09 03:44:00;;;;;;;1.92;1.60;;;10.50;99.90;;;;;;5074430;28;20243;-78
2023/11/09 03:46:28;;;;;;;1.45;1.35;;;10.50;99.90;;;;;;5076543;28;20224;-77
2023/11/09 03:48:55;;;;;;;1.65;1.52;;;10.50;99.90;;;;;;5075940;28;20310;-78
2023/11/09 03:51:24;;;;;;;2.55;1.90;;;10.50;99.90;;;;;;5076066;28;20228;-78
2023/11/09 03:53:51;;;;;;;1.67;1.27;;;10.50;99.90;;;;;;5075743;28;20571;-78
2023/11/09 03:56:21;;;;;;;1.67;1.58;;;10.50;99.90;;;;;;5076129;28;20232;-78
2023/11/09 03:58:48;;;;;;;1.73;1.60;;;10.50;99.90;;;;;;5075594;28;20246;-78
2023/11/09 04:01:15;;;;;;;1.73;1.63;;;10.50;99.90;;;;;;5075504;28;20235;-78
2023/11/09 04:03:43;;;;;;;1.95;1.75;;;10.50;99.90;;;;;;5075224;28;20529;-77
2023/11/09 04:06:16;;;;;;;1.77;1.50;;;10.60;99.90;;;;;;5076085;28;20254;-80
2023/11/09 04:08:43;;;;;;;1.95;1.75;;;10.60;99.90;;;;;;5075668;28;20220;-81
2023/11/09 04:11:10;;;;;;;3.95;1.90;;;10.60;99.90;;;;;;5076123;28;20266;-80
2023/11/09 04:13:37;;;;;;;1.45;1.35;;;10.60;99.90;;;;;;5076166;28;20564;-81
2023/11/09 04:16:04;;;;;;;2.20;2.00;;;10.60;99.90;;;;;;5074949;28;20258;-78
2023/11/09 04:18:33;;;;;;;2.13;1.40;;;10.50;99.90;;;;;;5075799;28;20553;-78
2023/11/09 04:21:09;;;;;;;3.05;1.90;;;10.60;99.90;;;;;;5074855;28;20237;-78
2023/11/09 04:23:37;;;;;;;2.38;2.17;;;10.60;99.90;;;;;;5079575;28;20216;-78
2023/11/09 04:26:08;;;;;;;2.35;1.60;;;10.60;99.90;;;;;;5074748;28;20236;-78
2023/11/09 04:28:35;;;;;;;2.42;1.25;;;10.60;99.90;;;;;;5075636;28;20227;-78
2023/11/09 04:31:04;;;;;;;2.30;2.10;;;10.70;99.90;;;;;;5075118;28;20700;-78
2023/11/09 04:33:32;;;;;;;3.40;1.80;;;10.70;99.90;;;;;;5076764;28;20235;-80
2023/11/09 04:36:00;;;;;;;1.70;1.35;;;10.70;99.90;;;;;;5075332;28;20360;-79
2023/11/09 04:38:30;;;;;;;1.80;1.65;;;10.70;99.90;;;;;;5075493;28;20220;-79
2023/11/09 04:41:09;;;;;;;2.58;1.60;;;10.70;99.90;;;;;;5076504;28;20280;-81
2023/11/09 04:43:37;;;;;;;3.17;1.50;;;10.70;99.90;;;;;;5076634;28;20220;-80
2023/11/09 04:46:10;;;;;;;1.60;1.50;;;10.80;99.90;;;;;;5075462;28;20285;-80
2023/11/09 04:48:44;;;;;;;2.35;1.35;;;10.80;99.90;;;;;;5076437;28;20305;-78
2023/11/09 04:51:20;;;;;;;4.38;1.90;;;10.80;99.90;;;;;;5075417;28;20677;-79
2023/11/09 04:53:51;;;;;;;1.77;1.20;;;10.90;99.90;;;;;;5075815;28;20654;-80
2023/11/09 04:56:38;;;;;;;2.63;1.77;;;10.90;99.90;;;;;;5076164;28;20223;-78
2023/11/09 05:07:21;;;;;;;2.70;1.70;;;11.00;99.90;;;;;;5074831;28;20231;-81
2023/11/09 05:09:49;;;;;;;2.00;1.67;;;11.00;99.90;;;;;;5074922;28;20678;-80
2023/11/09 05:12:16;;;;;;;2.70;1.60;;;11.00;99.90;;;;;;5074521;28;20231;-80
2023/11/09 05:14:44;;;;;;;1.50;1.40;;;11.00;99.90;;;;;;5074938;28;20252;-80
2023/11/09 05:17:13;;;;;;;1.52;1.40;;;11.00;99.90;;;;;;5074881;28;20303;-80
2023/11/09 05:19:41;;;;;;;2.38;1.70;;;11.00;99.90;;;;;;5074865;28;20242;-80
2023/11/09 05:22:08;;;;;;;3.53;1.70;;;11.10;99.90;;;;;;5074322;28;20287;-79
2023/11/09 05:24:36;;;;;;;1.70;1.50;;;11.00;99.90;;;;;;5074126;28;20693;-78
2023/11/09 05:27:05;;;;;;;2.08;1.70;;;11.10;99.90;;;;;;5072830;28;20246;-79
2023/11/09 05:29:33;;;;;;;3.53;2.03;;;11.10;99.90;;;;;;5081783;28;20219;-81
2023/11/09 05:32:04;;;;;;;2.78;2.00;;;11.10;99.90;;;;;;5074452;28;20224;-82
2023/11/09 05:34:32;;;;;;;2.30;1.75;;;11.10;99.90;;;;;;5075028;28;20239;-79
2023/11/09 05:36:59;;;;;;;2.85;1.88;;;11.10;99.90;;;;;;5074074;28;20232;-79
2023/11/09 05:39:27;;;;;;;2.20;1.20;;;11.10;99.90;;;;;;5074379;28;20714;-80
2023/11/09 05:41:54;;;;;;;2.97;1.98;;;11.10;99.90;;;;;;5075286;28;20234;-78
2023/11/09 05:44:23;;;;;;;2.63;1.77;;;11.10;99.90;;;;;;5073975;28;20292;-78
2023/11/09 05:46:50;;;;;;;3.92;1.88;;;11.10;99.90;;;;;;5074491;28;20216;-79
2023/11/09 05:49:20;;;;;;;3.42;1.85;;;11.10;99.90;;;;;;5073230;28;20220;-79
2023/11/09 05:51:48;;;;;;;3.17;2.28;;;11.10;99.90;;;;;;5074379;28;20696;-77
2023/11/09 05:54:15;;;;;;;1.60;1.48;;;11.20;99.90;;;;;;5074134;28;20236;-78
2023/11/09 05:56:42;;;;;;;4.35;1.85;;;11.20;99.90;;;;;;5074624;28;20312;-78
2023/11/09 05:59:12;;;;;;;1.50;1.33;;;11.30;99.90;;;;;;5074335;28;20224;-79
2023/11/09 06:01:42;;;;;;;2.75;1.20;;;11.30;99.90;;;;;;5075924;28;20231;-77
2023/11/09 06:04:09;;;;;;;1.80;1.45;;;11.30;99.90;;;;;;5077876;28;20243;-78
2023/11/09 06:06:38;;;;;;;3.38;1.63;;;11.20;99.90;;;;;;5079222;28;20246;-77
2023/11/09 06:09:06;;;;;;;2.67;1.85;;;11.30;99.90;;;;;;5079009;28;20231;-80
2023/11/09 06:11:36;;;;;;;3.53;1.80;;;11.30;99.90;;;;;;5070832;28;20227;-80
2023/11/09 06:14:03;;;;;;;8.35;5.70;;;11.30;99.90;;;;;;5088833;28;20293;-78
2023/11/09 06:16:31;;;;;;;6.70;4.43;;;11.30;99.90;;;;;;5074923;28;20318;-81
2023/11/09 06:19:01;;;;;;;2.88;2.60;;;11.30;99.90;;;;;;5075660;28;20291;-80
2023/11/09 06:21:29;;;;;;;1.55;1.33;;;11.40;99.90;;;;;;5075342;28;20253;-80
2023/11/09 06:23:56;;;;;;;5.65;2.65;;;11.40;99.90;;;;;;5076787;28;20227;-79
2023/11/09 06:26:24;;;;;;;1.63;1.52;;;11.40;99.90;;;;;;5075274;28;20285;-79
2023/11/09 06:28:52;;;;;;;3.03;1.90;;;11.40;99.90;;;;;;5077398;28;20273;-82
2023/11/09 06:31:21;;;;;;;2.30;1.27;;;11.40;99.90;;;;;;5075134;28;20693;-76
2023/11/09 06:33:48;;;;;;;1.50;1.40;;;11.40;99.90;;;;;;5075051;28;20239;-78
2023/11/09 06:36:19;;;;;;;5.85;4.10;;;11.40;99.90;;;;;;5074515;28;20234;-78
2023/11/09 06:38:46;;;;;;;5.03;3.70;;;11.50;99.90;;;;;;5074652;28;20220;-78
2023/11/09 06:41:14;;;;;;;3.65;2.28;;;11.50;99.90;;;;;;5073876;28;20226;-78
2023/11/09 06:43:43;;;;;;;2.50;1.75;;;11.50;99.90;;;;;;5074707;28;20224;-77
2023/11/09 06:46:10;;;;;;;3.15;2.00;;;11.60;99.90;;;;;;5074142;28;20315;-78
2023/11/09 06:48:48;;;;;;;3.28;2.13;;;11.60;99.90;;;;;;5077902;28;20226;-79
2023/11/09 06:51:18;;;;;;;2.42;1.70;;;11.60;99.90;;;;;;5074036;28;20502;-78
2023/11/09 06:53:45;;;;;;;2.33;1.60;;;11.60;99.90;;;;;;5074009;28;20216;-79
2023/11/09 06:56:12;;;;;;;2.63;1.60;;;11.70;99.90;;;;;;5052141;28;20243;-78
2023/11/09 06:58:39;;;;;;;2.35;2.08;;;11.70;99.90;;;;;;5074193;28;20228;-78
2023/11/09 07:01:06;;;;;;;3.45;2.50;;;11.70;99.90;;;;;;5078129;28;20224;-78
2023/11/09 07:03:34;;;;;;;2.42;2.22;;;11.70;99.90;;;;;;5079710;28;20366;-78
2023/11/09 07:06:01;;;;;;;6.63;4.00;;;11.70;99.90;;;;;;5074737;28;20670;-78
2023/11/09 07:08:30;;;;;;;5.40;3.28;;;11.70;99.90;;;;;;5075563;28;20299;-80
2023/11/09 07:10:58;;;;;;;3.25;2.95;;;11.70;99.90;;;;;;5076669;28;20300;-81
2023/11/09 07:13:25;;;;;;;3.33;3.03;;;11.70;99.90;;;;;;5074782;28;20228;-80
2023/11/09 07:15:52;;;;;;;3.20;2.63;;;11.80;99.90;;;;;;5075288;28;20289;-81
2023/11/09 07:18:19;;;;;;;4.47;2.38;;;11.80;99.90;;;;;;5077521;28;20227;-81
2023/11/09 07:20:46;;;;;;;3.80;2.08;;;11.80;99.90;;;;;;5078036;28;20247;-80
2023/11/09 07:23:14;;;;;;;3.42;1.92;;;11.90;99.90;;;;;;5080105;28;20251;-80
2023/11/09 07:25:43;;;;;;;2.22;2.03;;;11.80;99.90;;;;;;5078228;28;20231;-79
2023/11/09 07:28:10;;;;;;;2.72;1.77;;;11.90;99.90;;;;;;5079186;28;20228;-78
2023/11/09 07:30:36;;;;;;;2.85;1.80;;;11.90;99.90;;;;;;5079003;28;20220;-79
2023/11/09 07:33:04;;;;;;;1.75;1.50;;;11.90;99.90;;;;;;5078113;28;20247;-81
2023/11/09 07:35:37;;;;;;;2.45;2.25;;;11.80;99.90;;;;;;5078730;28;20305;-80
2023/11/09 07:38:04;;;;;;;3.70;2.20;;;11.80;99.90;;;;;;5061733;28;20215;-80
2023/11/09 07:40:32;;;;;;;2.97;1.80;;;11.80;99.90;;;;;;5091747;28;20258;-80
2023/11/09 07:43:01;;;;;;;2.78;1.80;;;11.80;99.90;;;;;;5080327;28;20274;-80
2023/11/09 07:45:28;;;;;;;2.47;2.28;;;11.80;99.90;;;;;;5083622;28;20224;-80
2023/11/09 07:47:55;;;;;;;2.47;1.70;;;11.80;99.90;;;;;;5084920;28;20247;-80
2023/11/09 07:50:23;;;;;;;2.25;1.42;;;11.80;99.90;;;;;;5083262;28;20279;-80
2023/11/09 07:52:50;;;;;;;3.88;1.70;;;11.90;99.90;;;;;;5079178;28;20219;-80
2023/11/09 07:55:19;;;;;;;2.35;1.50;;;11.90;99.90;;;;;;5091905;28;20266;-80
2023/11/09 07:57:46;;;;;;;3.33;1.92;;;11.90;99.90;;;;;;5086717;28;20220;-79
2023/11/09 08:00:16;;;;;;;2.13;1.90;;;11.90;99.90;;;;;;5079134;28;20234;-78
2023/11/09 08:02:44;;;;;;;1.80;1.70;;;11.90;99.90;;;;;;5077746;28;20236;-78
2023/11/09 08:05:14;;;;;;;7.18;2.65;;;12.00;99.90;;;;;;5076375;28;20220;-79
2023/11/09 08:07:42;;;;;;;3.53;1.40;;;12.00;99.90;;;;;;5077397;28;20243;-78
2023/11/09 08:10:09;;;;;;;4.07;2.42;;;12.00;99.90;;;;;;5076759;28;20331;-78
2023/11/09 08:12:36;;;;;;;4.60;2.67;;;12.00;99.90;;;;;;5076678;28;20226;-79
2023/11/09 08:15:10;;;;;;;3.75;3.45;;;12.00;99.90;;;;;;5075913;28;20864;-79
2023/11/09 08:17:41;;;;;;;3.20;2.03;;;12.10;99.90;;;;;;5076184;28;20215;-78
2023/11/09 08:20:13;;;;;;;3.92;2.00;;;12.10;99.90;;;;;;5075920;28;20228;-78
2023/11/09 08:22:41;;;;;;;2.78;1.65;;;12.10;99.90;;;;;;5076396;28;20608;-78
2023/11/09 08:25:08;;;;;;;2.17;1.50;;;12.10;99.90;;;;;;5074939;28;20311;-79
2023/11/09 08:27:40;;;;;;;3.95;1.73;;;12.10;99.90;;;;;;5076149;28;20239;-80
2023/11/09 08:30:10;;;;;;;4.90;1.55;;;12.10;99.90;;;;;;5075758;28;20224;-79
2023/11/09 08:32:40;;;;;;;2.70;2.13;;;12.20;99.90;;;;;;5076370;28;20239;-78
2023/11/09 08:35:10;;;;;;;1.75;1.25;;;12.20;99.90;;;;;;5074701;28;20239;-78
2023/11/09 08:37:46;;;;;;;2.85;1.88;;;12.20;99.90;;;;;;5077373;28;20285;-78
2023/11/09 08:40:17;;;;;;;2.30;2.10;;;12.20;99.90;;;;;;5074600;28;20749;-78
2023/11/09 08:42:47;;;;;;;3.03;2.05;;;12.10;99.90;;;;;;5075440;28;20224;-77
2023/11/09 08:45:17;;;;;;;5.43;1.70;;;12.20;99.90;;;;;;5075256;28;20231;-78
2023/11/09 08:47:46;;;;;;;4.00;1.90;;;12.20;99.90;;;;;;5075392;28;20608;-78
2023/11/09 08:50:13;;;;;;;5.80;3.63;;;12.30;99.90;;;;;;5075692;28;20315;-79
2023/11/09 08:52:41;;;;;;;5.32;2.90;;;12.30;99.90;;;;;;5075230;28;20293;-78
2023/11/09 08:55:09;;;;;;;2.53;2.33;;;12.40;99.90;;;;;;5074758;28;20289;-78
2023/11/09 08:57:42;;;;;;;5.68;2.80;;;12.50;99.90;;;;;;5075393;28;20216;-78
2023/11/09 09:00:11;;;;;;;4.90;2.38;;;12.50;99.90;;;;;;5073939;28;20228;-77
2023/11/09 09:02:44;;;;;;;1.60;1.35;;;12.40;99.90;;;;;;5074890;28;20224;-77
2023/11/09 09:05:15;;;;;;;3.60;2.10;;;12.50;99.90;;;;;;5074425;28;20289;-78
2023/11/09 09:07:42;;;;;;;3.15;1.90;;;12.50;99.90;;;;;;5068168;28;20604;-79
2023/11/09 09:10:15;;;;;;;3.25;2.80;;;12.50;99.90;;;;;;5087094;28;20262;-79
2023/11/09 09:12:44;;;;;;;5.40;1.85;;;12.60;99.90;;;;;;5074082;28;20228;-79
2023/11/09 09:15:13;;;;;;;5.13;2.25;;;12.60;99.90;;;;;;5074579;28;20228;-79
2023/11/09 09:17:41;;;;;;;11.23;2.00;;;12.60;99.90;;;;;;5073796;28;20216;-80
2023/11/09 09:20:11;;;;;;;2.35;1.95;;;12.70;99.90;;;;;;5074952;28;20220;-78
2023/11/09 09:22:40;;;;;;;2.10;1.70;;;12.70;99.90;;;;;;5074292;28;20239;-79
2023/11/09 09:25:10;;;;;;;2.47;1.80;;;12.70;99.90;;;;;;5074059;28;20836;-77
2023/11/09 09:27:41;;;;;;;1.60;1.50;;;12.80;99.90;;;;;;5074188;28;20607;-79
2023/11/09 09:30:10;;;;;;;3.10;1.70;;;12.90;99.90;;;;;;5074757;28;20463;-79
2023/11/09 09:32:42;;;;;;;3.07;2.40;;;12.90;99.90;;;;;;5074036;28;20512;-79
2023/11/09 09:35:10;;;;;;;1.55;1.40;;;12.90;99.90;;;;;;5074053;28;21271;-78
2023/11/09 09:37:39;;;;;;;4.25;2.83;;;12.90;99.90;;;;;;5074299;28;20236;-81
2023/11/09 09:40:16;;;;;;;6.20;4.23;;;13.00;99.90;;;;;;5074398;28;20689;-82
2023/11/09 09:42:46;;;;;;;2.00;1.80;;;13.00;99.90;;;;;;5074055;28;20465;-77
2023/11/09 09:45:16;;;;;;;1.92;1.75;;;13.00;99.90;;;;;;5073872;28;20470;-78
2023/11/09 09:47:48;;;;;;;3.00;2.53;;;13.00;99.90;;;;;;5073673;28;20223;-77
2023/11/09 09:50:15;;;;;;;2.20;1.98;;;13.00;99.90;;;;;;5074582;28;20231;-77
2023/11/09 09:52:46;;;;;;;2.50;2.30;;;13.00;99.90;;;;;;5073247;28;20232;-78
2023/11/09 09:55:15;;;;;;;4.95;1.60;;;13.10;99.90;;;;;;5074001;28;20536;-78
2023/11/09 09:57:44;;;;;;;3.13;1.87;;;13.10;99.90;;;;;;5073226;28;20227;-79
2023/11/09 10:00:23;;;;;;;2.00;1.60;;;13.10;99.90;;;;;;5073878;28;20535;-78
2023/11/09 10:02:50;;;;;;;4.47;1.80;;;13.20;99.90;;;;;;5074050;28;20465;-77
2023/11/09 10:05:19;;;;;;;1.60;1.50;;;13.20;99.90;;;;;;5074058;28;20231;-77
2023/11/09 10:08:01;;;;;;;1.60;1.50;;;13.30;99.90;;;;;;5073469;28;20549;-78
2023/11/09 10:10:32;;;;;;;2.20;2.00;;;13.30;99.90;;;;;;5073522;28;20493;-77
2023/11/09 10:13:00;;;;;;;1.75;1.40;;;13.40;99.90;;;;;;5074332;28;20470;-78
2023/11/09 10:15:27;;;;;;;3.10;1.67;;;13.40;99.90;;;;;;5074141;28;20228;-80
2023/11/09 10:17:55;;;;;;;2.10;1.87;;;13.40;99.90;;;;;;5073956;28;20474;-78
2023/11/09 10:20:22;;;;;;;5.90;1.97;;;13.40;99.90;;;;;;5073059;28;20561;-78
2023/11/09 10:22:50;;;;;;;1.60;1.50;;;13.40;99.90;;;;;;5073094;28;20797;-81
2023/11/09 10:25:18;;;;;;;2.20;1.60;;;13.40;99.90;;;;;;5073468;28;20574;-81
2023/11/09 10:27:49;;;;;;;1.90;1.80;;;13.40;99.90;;;;;;5072191;28;20845;-81
2023/11/09 10:30:21;;;;;;;2.47;2.17;;;13.40;99.90;;;;;;5073529;28;20478;-81
2023/11/09 10:32:47;;;;;;;2.30;2.13;;;13.50;99.90;;;;;;5073061;28;20500;-78
2023/11/09 10:35:17;;;;;;;4.37;2.20;;;13.50;99.90;;;;;;5072695;28;20955;-78
2023/11/09 10:37:44;;;;;;;4.90;1.87;;;13.50;99.90;;;;;;5073102;28;20477;-81
2023/11/09 10:40:13;;;;;;;4.23;3.20;;;13.50;99.90;;;;;;5073054;28;20541;-81
2023/11/09 10:42:44;;;;;;;5.73;4.33;;;13.40;99.90;;;;;;5072715;28;20867;-80
2023/11/09 10:45:13;;;;;;;4.37;3.00;;;13.50;99.90;;;;;;5073528;28;20485;-79
2023/11/09 10:47:41;;;;;;;1.70;1.60;;;13.50;99.90;;;;;;5072585;28;20474;-79
2023/11/09 10:50:13;;;;;;;3.93;2.90;;;13.50;99.90;;;;;;5073024;28;20466;-79
2023/11/09 10:52:43;;;;;;;4.10;2.77;;;13.50;99.90;;;;;;5080306;28;20469;-78
2023/11/09 10:55:12;;;;;;;3.67;2.93;;;13.60;99.90;;;;;;5076985;28;20505;-78
2023/11/09 10:57:43;;;;;;;3.00;2.70;;;13.60;99.90;;;;;;5076465;28;20466;-78
2023/11/09 11:00:25;;;;;;;3.75;2.92;;;13.60;99.90;;;;;;5077193;28;20458;-78
2023/11/09 11:02:54;;;;;;;2.47;1.90;;;13.60;99.90;;;;;;5076190;28;20258;-78
2023/11/09 11:05:25;;;;;;;1.83;1.63;;;13.50;99.90;;;;;;5077061;28;20975;-77
2023/11/09 11:07:54;;;;;;;2.23;1.90;;;13.50;99.90;;;;;;5076240;28;20469;-78
2023/11/09 11:10:21;;;;;;;4.17;2.17;;;13.50;99.90;;;;;;5076678;28;20562;-78
2023/11/09 11:12:50;;;;;;;1.97;1.80;;;13.60;99.90;;;;;;5076198;28;20462;-79
2023/11/09 11:15:29;;;;;;;3.77;1.77;;;13.60;99.90;;;;;;5076580;28;20971;-79
2023/11/09 11:18:03;;;;;;;3.87;2.13;;;13.60;99.90;;;;;;5075981;28;20454;-79
2023/11/09 11:20:58;;;;;;;4.87;2.40;;;13.60;99.90;;;;;;5076438;28;20525;-79
2023/11/09 11:23:54;;;;;;;2.80;2.00;;;13.60;99.90;;;;;;5074283;28;20529;-79
2023/11/09 11:26:28;;;;;;;2.60;1.97;;;13.60;99.90;;;;;;5080069;28;20541;-78
2023/11/09 11:28:55;;;;;;;2.03;1.63;;;13.60;99.90;;;;;;5076293;28;20461;-78
2023/11/09 11:31:24;;;;;;;2.93;1.87;;;13.60;99.90;;;;;;5074912;28;20474;-78
2023/11/09 11:33:51;;;;;;;1.80;1.70;;;13.50;99.90;;;;;;5076517;28;20480;-78
2023/11/09 11:36:26;;;;;;;2.10;1.57;;;13.50;99.90;;;;;;5075699;28;20845;-78
2023/11/09 11:39:35;;;;;;;2.17;1.40;;;13.60;99.90;;;;;;5076134;28;20466;-78
2023/11/09 11:42:17;;;;;;;2.60;1.50;;;13.60;99.90;;;;;;5075954;28;20446;-78
2023/11/09 11:44:50;;;;;;;1.50;1.33;;;13.60;99.90;;;;;;5075467;28;20473;-78
2023/11/09 11:47:18;;;;;;;3.57;1.70;;;13.60;99.90;;;;;;5076559;28;20454;-80
2023/11/09 11:49:48;;;;;;;2.60;2.23;;;13.60;99.90;;;;;;5075569;28;20539;-81
2023/11/09 11:52:19;;;;;;;3.60;1.70;;;13.60;99.90;;;;;;5075750;28;20454;-81
2023/11/09 11:54:46;;;;;;;1.57;1.47;;;13.60;99.90;;;;;;5074965;28;20471;-81
2023/11/09 11:57:14;;;;;;;5.97;2.23;;;13.60;99.90;;;;;;5076073;28;20454;-81
2023/11/09 11:59:41;;;;;;;5.50;2.40;;;13.60;99.90;;;;;;5075320;28;21010;-81
2023/11/09 12:02:12;;;;;;;2.93;1.70;;;13.60;99.90;;;;;;5075944;28;20455;-81
2023/11/09 12:04:47;;;;;;;1.90;1.50;;;13.60;99.90;;;;;;5074412;28;20482;-81
2023/11/09 12:07:18;;;;;;;2.50;1.90;;;13.60;99.90;;;;;;5075632;28;20457;-81
2023/11/09 12:09:47;;;;;;;2.10;1.77;;;13.50;99.90;;;;;;5075694;28;20546;-81
2023/11/09 12:12:15;;;;;;;4.83;1.30;;;13.50;99.90;;;;;;5074598;28;20545;-81
2023/11/09 12:14:43;;;;;;;3.63;2.00;;;13.60;99.90;;;;;;5075243;28;20497;-81
2023/11/09 12:17:13;;;;;;;2.70;2.50;;;13.70;99.90;;;;;;5078293;28;20470;-79
2023/11/09 12:19:46;;;;;;;2.80;1.40;;;13.70;99.90;;;;;;5056049;28;20524;-79
2023/11/09 12:22:13;;;;;;;2.10;1.90;;;13.80;99.90;;;;;;5075176;28;20462;-78
2023/11/09 12:24:42;;;;;;;2.07;1.83;;;13.80;99.90;;;;;;5075297;28;20506;-78
2023/11/09 12:27:10;;;;;;;7.37;5.20;;;13.90;99.90;;;;;;5074900;28;20482;-78
2023/11/09 12:29:41;;;;;;;6.80;6.13;;;13.90;99.90;;;;;;5075698;28;20558;-78
2023/11/09 12:32:09;;;;;;;5.83;5.33;;;13.90;99.90;;;;;;5074964;28;20527;-78
2023/11/09 12:34:39;;;;;;;3.50;2.10;;;13.90;99.90;;;;;;5074844;28;20474;-80
2023/11/09 12:37:12;;;;;;;3.60;2.10;;;13.90;99.90;;;;;;5074422;28;20490;-78
2023/11/09 12:39:44;;;;;;;2.43;1.50;;;13.90;99.90;;;;;;5075040;28;20500;-78
2023/11/09 12:42:24;;;;;;;3.30;1.30;;;13.80;99.90;;;;;;5074890;28;20451;-78
2023/11/09 12:44:53;;;;;;;1.73;1.47;;;13.80;99.90;;;;;;5074431;28;20516;-78
2023/11/09 12:47:22;;;;;;;2.70;1.50;;;13.70;99.90;;;;;;5074985;28;20469;-77
2023/11/09 12:49:50;;;;;;;2.27;2.07;;;13.70;99.90;;;;;;5074571;28;20470;-77
2023/11/09 12:52:19;;;;;;;1.83;1.60;;;13.70;99.90;;;;;;5074577;28;20825;-77
2023/11/09 12:54:46;;;;;;;2.27;1.93;;;13.80;99.90;;;;;;5074508;28;20553;-79
2023/11/09 12:57:17;;;;;;;4.10;3.40;;;13.80;99.90;;;;;;5074317;28;21914;-79
2023/11/09 12:59:45;;;;;;;3.50;3.20;;;13.90;99.90;;;;;;5074434;28;20470;-79
2023/11/09 13:02:18;;;;;;;2.90;1.63;;;13.90;99.90;;;;;;5066325;28;21033;-78
2023/11/09 13:04:49;;;;;;;2.13;1.67;;;14.00;99.90;;;;;;5087216;28;20506;-78